sensor_id;sensor_type;location;lat;lon;timestamp;P1;durP1;ratioP1;P2;durP2;ratioP2
8104;SDS011;4095;48.942;9.104;2023-03-23T00:02:19;1.37;;;1.27;;
8104;SDS011;4095;48.942;9.104;2023-03-23T00:04:52;2.40;;;1.00;;
8104;SDS011;4095;48.942;9.104;2023-03-23T00:07:18;1.00;;;0.93;;
8104;SDS011;4095;48.942;9.104;2023-03-23T00:09:48;1.23;;;1.00;;
8104;SDS011;4095;48.942;9.104;2023-03-23T00:12:23;2.00;;;1.03;;
8104;SDS011;4095;48.942;9.104;2023-03-23T00:15:04;3.20;;;1.40;;
8104;SDS011;4095;48.942;9.104;2023-03-23T00:17:32;1.97;;;1.00;;
8104;SDS011;4095;48.942;9.104;2023-03-23T00:19:58;1.93;;;1.17;;
8104;SDS011;4095;48.942;9.104;2023-03-23T00:22:26;2.13;;;1.10;;
8104;SDS011;4095;48.942;9.104;2023-03-23T00:24:53;1.80;;;1.27;;
8104;SDS011;4095;48.942;9.104;2023-03-23T00:27:20;1.53;;;1.20;;
8104;SDS011;4095;48.942;9.104;2023-03-23T00:29:50;2.23;;;1.07;;
8104;SDS011;4095;48.942;9.104;2023-03-23T00:32:21;2.87;;;1.40;;
8104;SDS011;4095;48.942;9.104;2023-03-23T00:34:52;1.60;;;1.20;;
8104;SDS011;4095;48.942;9.104;2023-03-23T00:37:18;1.97;;;1.00;;
8104;SDS011;4095;48.942;9.104;2023-03-23T00:39:44;1.20;;;1.10;;
8104;SDS011;4095;48.942;9.104;2023-03-23T00:42:11;1.53;;;1.20;;
8104;SDS011;4095;48.942;9.104;2023-03-23T00:44:38;2.17;;;1.27;;
8104;SDS011;4095;48.942;9.104;2023-03-23T00:47:05;1.80;;;1.20;;
8104;SDS011;4095;48.942;9.104;2023-03-23T00:49:31;1.87;;;1.40;;
8104;SDS011;4095;48.942;9.104;2023-03-23T00:52:00;1.73;;;1.20;;
8104;SDS011;4095;48.942;9.104;2023-03-23T00:54:27;1.97;;;1.33;;
8104;SDS011;4095;48.942;9.104;2023-03-23T00:56:52;1.50;;;1.40;;
8104;SDS011;4095;48.942;9.104;2023-03-23T00:59:18;1.83;;;1.40;;
8104;SDS011;4095;48.942;9.104;2023-03-23T01:01:44;1.47;;;1.37;;
8104;SDS011;4095;48.942;9.104;2023-03-23T01:04:10;2.67;;;1.50;;
8104;SDS011;4095;48.942;9.104;2023-03-23T01:06:37;1.43;;;1.30;;
8104;SDS011;4095;48.942;9.104;2023-03-23T01:09:09;1.70;;;1.43;;
8104;SDS011;4095;48.942;9.104;2023-03-23T01:11:36;2.87;;;1.30;;
8104;SDS011;4095;48.942;9.104;2023-03-23T01:14:04;1.60;;;1.40;;
8104;SDS011;4095;48.942;9.104;2023-03-23T01:16:30;1.93;;;1.50;;
8104;SDS011;4095;48.942;9.104;2023-03-23T01:18:55;1.63;;;1.20;;
8104;SDS011;4095;48.942;9.104;2023-03-23T01:21:21;2.30;;;1.20;;
8104;SDS011;4095;48.942;9.104;2023-03-23T01:23:47;2.07;;;1.57;;
8104;SDS011;4095;48.942;9.104;2023-03-23T01:26:15;2.27;;;1.50;;
8104;SDS011;4095;48.942;9.104;2023-03-23T01:28:49;1.30;;;1.20;;
8104;SDS011;4095;48.942;9.104;2023-03-23T01:31:17;1.87;;;1.40;;
8104;SDS011;4095;48.942;9.104;2023-03-23T01:33:44;2.27;;;1.40;;
8104;SDS011;4095;48.942;9.104;2023-03-23T01:36:14;2.83;;;1.73;;
8104;SDS011;4095;48.942;9.104;2023-03-23T01:38:42;1.93;;;1.50;;
8104;SDS011;4095;48.942;9.104;2023-03-23T01:41:10;2.70;;;1.40;;
8104;SDS011;4095;48.942;9.104;2023-03-23T01:43:36;2.53;;;1.63;;
8104;SDS011;4095;48.942;9.104;2023-03-23T01:46:18;2.17;;;1.70;;
8104;SDS011;4095;48.942;9.104;2023-03-23T01:48:43;2.80;;;1.77;;
8104;SDS011;4095;48.942;9.104;2023-03-23T01:51:12;2.00;;;1.63;;
8104;SDS011;4095;48.942;9.104;2023-03-23T01:53:45;2.50;;;1.70;;
8104;SDS011;4095;48.942;9.104;2023-03-23T01:56:14;2.73;;;1.70;;
8104;SDS011;4095;48.942;9.104;2023-03-23T01:58:45;1.90;;;1.70;;
8104;SDS011;4095;48.942;9.104;2023-03-23T02:01:12;2.10;;;1.50;;
8104;SDS011;4095;48.942;9.104;2023-03-23T02:03:41;2.27;;;1.37;;
8104;SDS011;4095;48.942;9.104;2023-03-23T02:06:10;2.60;;;1.50;;
8104;SDS011;4095;48.942;9.104;2023-03-23T02:08:37;2.77;;;1.70;;
8104;SDS011;4095;48.942;9.104;2023-03-23T02:11:16;3.30;;;1.77;;
8104;SDS011;4095;48.942;9.104;2023-03-23T02:13:44;1.97;;;1.70;;
8104;SDS011;4095;48.942;9.104;2023-03-23T02:26:56;2.67;;;1.90;;
8104;SDS011;4095;48.942;9.104;2023-03-23T02:30:10;2.57;;;1.60;;
8104;SDS011;4095;48.942;9.104;2023-03-23T02:35:43;3.03;;;1.60;;
8104;SDS011;4095;48.942;9.104;2023-03-23T02:38:55;3.13;;;1.90;;
8104;SDS011;4095;48.942;9.104;2023-03-23T02:41:31;2.47;;;1.50;;
8104;SDS011;4095;48.942;9.104;2023-03-23T02:44:24;1.83;;;1.60;;
8104;SDS011;4095;48.942;9.104;2023-03-23T02:46:54;1.73;;;1.60;;
8104;SDS011;4095;48.942;9.104;2023-03-23T02:49:22;2.07;;;1.80;;
8104;SDS011;4095;48.942;9.104;2023-03-23T02:51:51;2.23;;;1.50;;
8104;SDS011;4095;48.942;9.104;2023-03-23T02:54:18;2.03;;;1.60;;
8104;SDS011;4095;48.942;9.104;2023-03-23T02:56:50;2.50;;;1.70;;
8104;SDS011;4095;48.942;9.104;2023-03-23T02:59:17;2.40;;;1.70;;
8104;SDS011;4095;48.942;9.104;2023-03-23T03:04:12;2.37;;;1.73;;
8104;SDS011;4095;48.942;9.104;2023-03-23T03:12:36;2.13;;;1.63;;
8104;SDS011;4095;48.942;9.104;2023-03-23T03:17:53;2.03;;;1.80;;
8104;SDS011;4095;48.942;9.104;2023-03-23T03:20:28;2.67;;;1.87;;
8104;SDS011;4095;48.942;9.104;2023-03-23T03:22:55;1.50;;;1.40;;
8104;SDS011;4095;48.942;9.104;2023-03-23T03:25:22;2.93;;;2.13;;
8104;SDS011;4095;48.942;9.104;2023-03-23T03:27:49;2.13;;;1.70;;
8104;SDS011;4095;48.942;9.104;2023-03-23T03:30:17;2.93;;;1.80;;
8104;SDS011;4095;48.942;9.104;2023-03-23T03:32:49;1.90;;;1.77;;
8104;SDS011;4095;48.942;9.104;2023-03-23T03:35:18;3.53;;;2.00;;
8104;SDS011;4095;48.942;9.104;2023-03-23T03:37:48;3.10;;;1.97;;
8104;SDS011;4095;48.942;9.104;2023-03-23T03:40:14;2.37;;;2.10;;
8104;SDS011;4095;48.942;9.104;2023-03-23T03:42:42;3.07;;;1.63;;
8104;SDS011;4095;48.942;9.104;2023-03-23T03:45:10;1.97;;;1.70;;
8104;SDS011;4095;48.942;9.104;2023-03-23T03:47:38;1.80;;;1.70;;
8104;SDS011;4095;48.942;9.104;2023-03-23T03:50:03;2.00;;;1.70;;
8104;SDS011;4095;48.942;9.104;2023-03-23T03:52:30;2.90;;;1.70;;
8104;SDS011;4095;48.942;9.104;2023-03-23T03:54:56;2.43;;;1.80;;
8104;SDS011;4095;48.942;9.104;2023-03-23T03:57:22;3.30;;;1.80;;
8104;SDS011;4095;48.942;9.104;2023-03-23T03:59:48;2.77;;;1.77;;
8104;SDS011;4095;48.942;9.104;2023-03-23T04:02:14;2.80;;;2.00;;
8104;SDS011;4095;48.942;9.104;2023-03-23T04:04:44;2.03;;;1.70;;
8104;SDS011;4095;48.942;9.104;2023-03-23T04:07:11;2.37;;;1.77;;
8104;SDS011;4095;48.942;9.104;2023-03-23T04:09:38;2.03;;;1.60;;
8104;SDS011;4095;48.942;9.104;2023-03-23T04:12:14;2.67;;;1.50;;
8104;SDS011;4095;48.942;9.104;2023-03-23T04:14:40;1.90;;;1.60;;
8104;SDS011;4095;48.942;9.104;2023-03-23T04:17:06;1.70;;;1.60;;
8104;SDS011;4095;48.942;9.104;2023-03-23T04:19:34;1.53;;;1.43;;
8104;SDS011;4095;48.942;9.104;2023-03-23T04:22:01;3.07;;;1.67;;
8104;SDS011;4095;48.942;9.104;2023-03-23T04:24:28;2.47;;;1.67;;
8104;SDS011;4095;48.942;9.104;2023-03-23T04:26:57;1.70;;;1.60;;
8104;SDS011;4095;48.942;9.104;2023-03-23T04:29:23;2.70;;;1.63;;
8104;SDS011;4095;48.942;9.104;2023-03-23T04:31:48;2.53;;;1.63;;
8104;SDS011;4095;48.942;9.104;2023-03-23T04:34:15;2.20;;;1.70;;
8104;SDS011;4095;48.942;9.104;2023-03-23T04:36:42;2.57;;;1.80;;
8104;SDS011;4095;48.942;9.104;2023-03-23T04:39:08;2.53;;;1.73;;
8104;SDS011;4095;48.942;9.104;2023-03-23T04:41:38;3.90;;;2.10;;
8104;SDS011;4095;48.942;9.104;2023-03-23T04:44:05;2.73;;;1.70;;
8104;SDS011;4095;48.942;9.104;2023-03-23T04:46:31;2.03;;;1.70;;
8104;SDS011;4095;48.942;9.104;2023-03-23T04:48:58;2.47;;;1.80;;
8104;SDS011;4095;48.942;9.104;2023-03-23T04:51:25;2.10;;;1.77;;
8104;SDS011;4095;48.942;9.104;2023-03-23T04:53:51;3.17;;;1.70;;
8104;SDS011;4095;48.942;9.104;2023-03-23T04:56:18;2.70;;;1.70;;
8104;SDS011;4095;48.942;9.104;2023-03-23T04:58:43;2.20;;;1.50;;
8104;SDS011;4095;48.942;9.104;2023-03-23T05:01:10;2.20;;;1.70;;
8104;SDS011;4095;48.942;9.104;2023-03-23T05:03:38;2.37;;;1.80;;
8104;SDS011;4095;48.942;9.104;2023-03-23T05:06:05;2.27;;;1.60;;
8104;SDS011;4095;48.942;9.104;2023-03-23T05:08:31;2.00;;;1.60;;
8104;SDS011;4095;48.942;9.104;2023-03-23T05:10:57;2.57;;;1.50;;
8104;SDS011;4095;48.942;9.104;2023-03-23T05:13:24;3.10;;;1.80;;
8104;SDS011;4095;48.942;9.104;2023-03-23T05:15:51;1.50;;;1.30;;
8104;SDS011;4095;48.942;9.104;2023-03-23T05:18:17;2.63;;;1.83;;
8104;SDS011;4095;48.942;9.104;2023-03-23T05:20:42;2.27;;;1.70;;
8104;SDS011;4095;48.942;9.104;2023-03-23T05:23:08;1.90;;;1.47;;
8104;SDS011;4095;48.942;9.104;2023-03-23T05:25:35;2.40;;;1.60;;
8104;SDS011;4095;48.942;9.104;2023-03-23T05:28:05;1.70;;;1.60;;
8104;SDS011;4095;48.942;9.104;2023-03-23T05:30:31;1.90;;;1.57;;
8104;SDS011;4095;48.942;9.104;2023-03-23T05:32:57;4.47;;;1.53;;
8104;SDS011;4095;48.942;9.104;2023-03-23T05:35:22;2.47;;;1.80;;
8104;SDS011;4095;48.942;9.104;2023-03-23T05:37:48;3.03;;;1.30;;
8104;SDS011;4095;48.942;9.104;2023-03-23T05:40:13;2.83;;;1.60;;
8104;SDS011;4095;48.942;9.104;2023-03-23T05:42:40;1.80;;;1.60;;
8104;SDS011;4095;48.942;9.104;2023-03-23T05:45:07;2.17;;;1.63;;
8104;SDS011;4095;48.942;9.104;2023-03-23T05:47:36;3.00;;;1.60;;
8104;SDS011;4095;48.942;9.104;2023-03-23T05:50:02;2.43;;;1.77;;
8104;SDS011;4095;48.942;9.104;2023-03-23T05:52:30;1.80;;;1.40;;
8104;SDS011;4095;48.942;9.104;2023-03-23T05:54:57;2.53;;;1.90;;
8104;SDS011;4095;48.942;9.104;2023-03-23T05:57:23;2.00;;;1.67;;
8104;SDS011;4095;48.942;9.104;2023-03-23T05:59:48;2.40;;;1.60;;
8104;SDS011;4095;48.942;9.104;2023-03-23T06:02:14;2.17;;;1.40;;
8104;SDS011;4095;48.942;9.104;2023-03-23T06:04:40;1.90;;;1.67;;
8104;SDS011;4095;48.942;9.104;2023-03-23T06:07:07;2.10;;;1.57;;
8104;SDS011;4095;48.942;9.104;2023-03-23T06:09:37;2.97;;;1.67;;
8104;SDS011;4095;48.942;9.104;2023-03-23T06:12:03;1.60;;;1.47;;
8104;SDS011;4095;48.942;9.104;2023-03-23T06:14:29;2.57;;;1.40;;
8104;SDS011;4095;48.942;9.104;2023-03-23T06:16:56;1.77;;;1.67;;
8104;SDS011;4095;48.942;9.104;2023-03-23T06:19:22;2.53;;;1.80;;
8104;SDS011;4095;48.942;9.104;2023-03-23T06:21:48;2.07;;;1.40;;
8104;SDS011;4095;48.942;9.104;2023-03-23T06:24:13;2.33;;;1.60;;
8104;SDS011;4095;48.942;9.104;2023-03-23T06:26:40;2.13;;;1.70;;
8104;SDS011;4095;48.942;9.104;2023-03-23T06:29:09;1.93;;;1.77;;
8104;SDS011;4095;48.942;9.104;2023-03-23T06:31:38;3.43;;;2.43;;
8104;SDS011;4095;48.942;9.104;2023-03-23T06:34:06;3.67;;;2.87;;
8104;SDS011;4095;48.942;9.104;2023-03-23T06:36:33;5.07;;;3.57;;
8104;SDS011;4095;48.942;9.104;2023-03-23T06:38:59;4.77;;;2.50;;
8104;SDS011;4095;48.942;9.104;2023-03-23T06:41:26;6.27;;;4.03;;
8104;SDS011;4095;48.942;9.104;2023-03-23T06:43:51;5.00;;;3.27;;
8104;SDS011;4095;48.942;9.104;2023-03-23T06:46:17;5.50;;;3.50;;
8104;SDS011;4095;48.942;9.104;2023-03-23T06:48:43;5.40;;;2.40;;
8104;SDS011;4095;48.942;9.104;2023-03-23T06:51:08;6.60;;;2.53;;
8104;SDS011;4095;48.942;9.104;2023-03-23T06:53:34;5.73;;;2.80;;
8104;SDS011;4095;48.942;9.104;2023-03-23T06:56:00;7.90;;;2.77;;
8104;SDS011;4095;48.942;9.104;2023-03-23T06:58:25;9.50;;;3.30;;
8104;SDS011;4095;48.942;9.104;2023-03-23T07:00:55;3.77;;;2.57;;
8104;SDS011;4095;48.942;9.104;2023-03-23T07:03:22;5.30;;;2.50;;
8104;SDS011;4095;48.942;9.104;2023-03-23T07:05:48;4.63;;;2.07;;
8104;SDS011;4095;48.942;9.104;2023-03-23T07:08:14;2.73;;;1.80;;
8104;SDS011;4095;48.942;9.104;2023-03-23T07:10:40;2.20;;;1.80;;
8104;SDS011;4095;48.942;9.104;2023-03-23T07:13:06;3.10;;;1.60;;
8104;SDS011;4095;48.942;9.104;2023-03-23T07:15:32;2.90;;;2.13;;
8104;SDS011;4095;48.942;9.104;2023-03-23T07:17:57;3.73;;;1.70;;
8104;SDS011;4095;48.942;9.104;2023-03-23T07:20:23;2.87;;;2.07;;
8104;SDS011;4095;48.942;9.104;2023-03-23T07:22:49;3.40;;;2.00;;
8104;SDS011;4095;48.942;9.104;2023-03-23T07:25:15;4.87;;;2.60;;
8104;SDS011;4095;48.942;9.104;2023-03-23T07:27:41;8.03;;;3.70;;
8104;SDS011;4095;48.942;9.104;2023-03-23T07:30:08;8.77;;;4.67;;
8104;SDS011;4095;48.942;9.104;2023-03-23T07:32:35;7.03;;;3.90;;
8104;SDS011;4095;48.942;9.104;2023-03-23T07:35:00;8.90;;;4.60;;
8104;SDS011;4095;48.942;9.104;2023-03-23T07:37:26;7.73;;;4.47;;
8104;SDS011;4095;48.942;9.104;2023-03-23T07:39:53;9.70;;;5.03;;
8104;SDS011;4095;48.942;9.104;2023-03-23T07:42:19;8.57;;;4.53;;
8104;SDS011;4095;48.942;9.104;2023-03-23T07:44:44;4.60;;;2.77;;
8104;SDS011;4095;48.942;9.104;2023-03-23T07:47:10;3.97;;;2.30;;
8104;SDS011;4095;48.942;9.104;2023-03-23T07:49:35;3.93;;;1.90;;
8104;SDS011;4095;48.942;9.104;2023-03-23T07:52:02;4.33;;;2.00;;
8104;SDS011;4095;48.942;9.104;2023-03-23T07:54:28;2.37;;;1.77;;
8104;SDS011;4095;48.942;9.104;2023-03-23T07:56:54;2.13;;;1.90;;
8104;SDS011;4095;48.942;9.104;2023-03-23T07:59:19;3.00;;;1.80;;
8104;SDS011;4095;48.942;9.104;2023-03-23T08:01:45;2.60;;;1.83;;
8104;SDS011;4095;48.942;9.104;2023-03-23T08:04:11;2.03;;;1.83;;
8104;SDS011;4095;48.942;9.104;2023-03-23T08:06:38;2.10;;;1.87;;
8104;SDS011;4095;48.942;9.104;2023-03-23T08:09:04;2.20;;;1.73;;
8104;SDS011;4095;48.942;9.104;2023-03-23T08:11:33;3.10;;;1.97;;
8104;SDS011;4095;48.942;9.104;2023-03-23T08:13:59;3.33;;;1.87;;
8104;SDS011;4095;48.942;9.104;2023-03-23T08:16:26;3.60;;;2.17;;
8104;SDS011;4095;48.942;9.104;2023-03-23T08:18:52;4.80;;;1.73;;
8104;SDS011;4095;48.942;9.104;2023-03-23T08:21:18;3.13;;;2.20;;
8104;SDS011;4095;48.942;9.104;2023-03-23T08:23:43;5.17;;;2.03;;
8104;SDS011;4095;48.942;9.104;2023-03-23T08:26:10;4.30;;;2.00;;
8104;SDS011;4095;48.942;9.104;2023-03-23T08:28:36;2.50;;;1.87;;
8104;SDS011;4095;48.942;9.104;2023-03-23T08:31:09;2.53;;;1.90;;
8104;SDS011;4095;48.942;9.104;2023-03-23T08:33:37;4.30;;;2.00;;
8104;SDS011;4095;48.942;9.104;2023-03-23T08:36:03;2.73;;;1.80;;
8104;SDS011;4095;48.942;9.104;2023-03-23T08:38:29;2.23;;;1.90;;
8104;SDS011;4095;48.942;9.104;2023-03-23T08:40:59;3.83;;;1.97;;
8104;SDS011;4095;48.942;9.104;2023-03-23T08:43:26;2.47;;;1.87;;
8104;SDS011;4095;48.942;9.104;2023-03-23T08:45:52;4.13;;;1.90;;
8104;SDS011;4095;48.942;9.104;2023-03-23T08:48:18;3.23;;;2.10;;
8104;SDS011;4095;48.942;9.104;2023-03-23T08:50:44;2.53;;;2.10;;
8104;SDS011;4095;48.942;9.104;2023-03-23T08:53:10;2.87;;;1.80;;
8104;SDS011;4095;48.942;9.104;2023-03-23T08:55:36;4.33;;;1.90;;
8104;SDS011;4095;48.942;9.104;2023-03-23T08:58:02;2.27;;;1.80;;
8104;SDS011;4095;48.942;9.104;2023-03-23T09:00:28;1.90;;;1.50;;
8104;SDS011;4095;48.942;9.104;2023-03-23T09:02:55;2.10;;;1.90;;
8104;SDS011;4095;48.942;9.104;2023-03-23T09:05:22;2.57;;;1.90;;
8104;SDS011;4095;48.942;9.104;2023-03-23T09:07:50;3.93;;;2.00;;
8104;SDS011;4095;48.942;9.104;2023-03-23T09:10:18;2.73;;;1.50;;
8104;SDS011;4095;48.942;9.104;2023-03-23T09:12:45;1.83;;;1.43;;
8104;SDS011;4095;48.942;9.104;2023-03-23T09:15:12;1.63;;;1.53;;
8104;SDS011;4095;48.942;9.104;2023-03-23T09:17:40;2.70;;;1.83;;
8104;SDS011;4095;48.942;9.104;2023-03-23T09:20:11;3.00;;;1.63;;
8104;SDS011;4095;48.942;9.104;2023-03-23T09:22:39;2.00;;;1.70;;
8104;SDS011;4095;48.942;9.104;2023-03-23T09:25:10;2.70;;;1.63;;
8104;SDS011;4095;48.942;9.104;2023-03-23T09:27:40;2.70;;;1.70;;
8104;SDS011;4095;48.942;9.104;2023-03-23T09:30:09;1.93;;;1.60;;
8104;SDS011;4095;48.942;9.104;2023-03-23T09:32:36;2.90;;;1.60;;
8104;SDS011;4095;48.942;9.104;2023-03-23T09:35:05;2.67;;;1.60;;
8104;SDS011;4095;48.942;9.104;2023-03-23T09:37:37;2.70;;;1.40;;
8104;SDS011;4095;48.942;9.104;2023-03-23T09:40:04;1.57;;;1.37;;
8104;SDS011;4095;48.942;9.104;2023-03-23T09:50:37;2.70;;;1.33;;
8104;SDS011;4095;48.942;9.104;2023-03-23T09:53:15;1.87;;;1.40;;
8104;SDS011;4095;48.942;9.104;2023-03-23T09:55:44;2.20;;;1.30;;
8104;SDS011;4095;48.942;9.104;2023-03-23T10:00:45;1.47;;;1.37;;
8104;SDS011;4095;48.942;9.104;2023-03-23T10:03:21;1.57;;;1.40;;
8104;SDS011;4095;48.942;9.104;2023-03-23T10:05:51;4.67;;;2.57;;
8104;SDS011;4095;48.942;9.104;2023-03-23T10:08:30;3.57;;;1.57;;
8104;SDS011;4095;48.942;9.104;2023-03-23T10:11:04;2.23;;;1.60;;
8104;SDS011;4095;48.942;9.104;2023-03-23T10:16:07;2.13;;;1.60;;
8104;SDS011;4095;48.942;9.104;2023-03-23T10:18:37;1.90;;;1.53;;
8104;SDS011;4095;48.942;9.104;2023-03-23T10:21:06;2.27;;;1.57;;
8104;SDS011;4095;48.942;9.104;2023-03-23T10:28:47;3.03;;;1.80;;
8104;SDS011;4095;48.942;9.104;2023-03-23T10:31:22;2.13;;;1.70;;
8104;SDS011;4095;48.942;9.104;2023-03-23T10:33:59;2.00;;;1.80;;
8104;SDS011;4095;48.942;9.104;2023-03-23T10:41:43;2.53;;;1.50;;
8104;SDS011;4095;48.942;9.104;2023-03-23T10:44:13;3.90;;;1.53;;
8104;SDS011;4095;48.942;9.104;2023-03-23T10:46:45;1.97;;;1.33;;
8104;SDS011;4095;48.942;9.104;2023-03-23T10:49:38;1.90;;;1.43;;
8104;SDS011;4095;48.942;9.104;2023-03-23T10:52:36;2.10;;;1.43;;
8104;SDS011;4095;48.942;9.104;2023-03-23T10:55:11;2.10;;;1.40;;
8104;SDS011;4095;48.942;9.104;2023-03-23T10:57:58;2.97;;;1.50;;
8104;SDS011;4095;48.942;9.104;2023-03-23T11:00:26;2.10;;;1.53;;
8104;SDS011;4095;48.942;9.104;2023-03-23T11:02:57;2.30;;;1.40;;
8104;SDS011;4095;48.942;9.104;2023-03-23T11:05:26;1.77;;;1.40;;
8104;SDS011;4095;48.942;9.104;2023-03-23T11:08:03;3.63;;;1.70;;
8104;SDS011;4095;48.942;9.104;2023-03-23T11:10:36;1.40;;;1.30;;
8104;SDS011;4095;48.942;9.104;2023-03-23T11:13:04;1.77;;;1.33;;
8104;SDS011;4095;48.942;9.104;2023-03-23T11:15:35;1.63;;;1.40;;
8104;SDS011;4095;48.942;9.104;2023-03-23T11:18:05;2.03;;;1.50;;
8104;SDS011;4095;48.942;9.104;2023-03-23T11:20:46;3.70;;;1.90;;
8104;SDS011;4095;48.942;9.104;2023-03-23T11:23:27;1.40;;;1.30;;
8104;SDS011;4095;48.942;9.104;2023-03-23T11:26:02;1.73;;;1.50;;
8104;SDS011;4095;48.942;9.104;2023-03-23T11:28:35;2.30;;;1.57;;
8104;SDS011;4095;48.942;9.104;2023-03-23T11:31:03;2.17;;;1.40;;
8104;SDS011;4095;48.942;9.104;2023-03-23T11:36:21;2.00;;;1.40;;
8104;SDS011;4095;48.942;9.104;2023-03-23T11:38:59;2.07;;;1.43;;
8104;SDS011;4095;48.942;9.104;2023-03-23T11:41:31;1.80;;;1.53;;
8104;SDS011;4095;48.942;9.104;2023-03-23T11:44:01;3.10;;;1.60;;
8104;SDS011;4095;48.942;9.104;2023-03-23T11:46:35;1.60;;;1.50;;
8104;SDS011;4095;48.942;9.104;2023-03-23T11:49:15;2.10;;;1.50;;
8104;SDS011;4095;48.942;9.104;2023-03-23T11:51:49;3.17;;;1.60;;
8104;SDS011;4095;48.942;9.104;2023-03-23T11:54:36;2.80;;;1.70;;
8104;SDS011;4095;48.942;9.104;2023-03-23T11:57:10;2.00;;;1.70;;
8104;SDS011;4095;48.942;9.104;2023-03-23T11:59:38;2.00;;;1.70;;
8104;SDS011;4095;48.942;9.104;2023-03-23T12:04:57;2.17;;;1.80;;
8104;SDS011;4095;48.942;9.104;2023-03-23T12:08:05;2.60;;;1.63;;
8104;SDS011;4095;48.942;9.104;2023-03-23T12:10:48;1.87;;;1.60;;
8104;SDS011;4095;48.942;9.104;2023-03-23T12:13:34;2.07;;;1.77;;
8104;SDS011;4095;48.942;9.104;2023-03-23T12:16:31;2.93;;;1.80;;
8104;SDS011;4095;48.942;9.104;2023-03-23T12:21:37;3.63;;;1.90;;
8104;SDS011;4095;48.942;9.104;2023-03-23T12:24:26;1.63;;;1.47;;
8104;SDS011;4095;48.942;9.104;2023-03-23T12:27:13;1.90;;;1.60;;
8104;SDS011;4095;48.942;9.104;2023-03-23T12:30:01;2.07;;;1.70;;
8104;SDS011;4095;48.942;9.104;2023-03-23T12:33:17;3.03;;;1.80;;
8104;SDS011;4095;48.942;9.104;2023-03-23T12:41:51;4.20;;;2.20;;
8104;SDS011;4095;48.942;9.104;2023-03-23T12:44:33;3.13;;;1.97;;
8104;SDS011;4095;48.942;9.104;2023-03-23T12:47:13;2.33;;;1.80;;
8104;SDS011;4095;48.942;9.104;2023-03-23T12:55:36;2.20;;;1.90;;
8104;SDS011;4095;48.942;9.104;2023-03-23T12:58:12;2.43;;;1.93;;
8104;SDS011;4095;48.942;9.104;2023-03-23T13:11:41;2.40;;;1.80;;
8104;SDS011;4095;48.942;9.104;2023-03-23T13:17:15;1.83;;;1.73;;
8104;SDS011;4095;48.942;9.104;2023-03-23T13:23:34;2.87;;;1.80;;
8104;SDS011;4095;48.942;9.104;2023-03-23T13:25:54;2.83;;;1.80;;
8104;SDS011;4095;48.942;9.104;2023-03-23T13:28:31;2.07;;;1.67;;
8104;SDS011;4095;48.942;9.104;2023-03-23T13:34:24;2.60;;;1.90;;
8104;SDS011;4095;48.942;9.104;2023-03-23T13:36:37;3.43;;;2.00;;
8104;SDS011;4095;48.942;9.104;2023-03-23T13:39:06;3.13;;;1.80;;
8104;SDS011;4095;48.942;9.104;2023-03-23T13:41:47;1.70;;;1.60;;
8104;SDS011;4095;48.942;9.104;2023-03-23T13:44:42;2.87;;;1.90;;
8104;SDS011;4095;48.942;9.104;2023-03-23T13:55:30;2.17;;;1.97;;
8104;SDS011;4095;48.942;9.104;2023-03-23T13:58:24;3.83;;;1.90;;
8104;SDS011;4095;48.942;9.104;2023-03-23T14:01:01;3.07;;;1.90;;
8104;SDS011;4095;48.942;9.104;2023-03-23T14:10:56;2.23;;;1.90;;
8104;SDS011;4095;48.942;9.104;2023-03-23T14:16:24;4.83;;;2.00;;
8104;SDS011;4095;48.942;9.104;2023-03-23T14:18:57;3.50;;;1.60;;
8104;SDS011;4095;48.942;9.104;2023-03-23T14:23:53;2.23;;;1.70;;
8104;SDS011;4095;48.942;9.104;2023-03-23T14:26:21;3.03;;;2.23;;
8104;SDS011;4095;48.942;9.104;2023-03-23T14:28:49;3.33;;;2.00;;
8104;SDS011;4095;48.942;9.104;2023-03-23T14:31:25;2.60;;;1.97;;
8104;SDS011;4095;48.942;9.104;2023-03-23T14:33:53;2.13;;;1.73;;
8104;SDS011;4095;48.942;9.104;2023-03-23T14:36:26;3.37;;;2.00;;
8104;SDS011;4095;48.942;9.104;2023-03-23T14:41:31;2.83;;;2.00;;
8104;SDS011;4095;48.942;9.104;2023-03-23T14:43:59;2.33;;;2.07;;
8104;SDS011;4095;48.942;9.104;2023-03-23T14:46:27;3.07;;;2.07;;
8104;SDS011;4095;48.942;9.104;2023-03-23T14:48:54;4.97;;;2.10;;
8104;SDS011;4095;48.942;9.104;2023-03-23T14:51:20;2.17;;;1.90;;
8104;SDS011;4095;48.942;9.104;2023-03-23T14:53:46;4.13;;;2.30;;
8104;SDS011;4095;48.942;9.104;2023-03-23T14:56:16;4.13;;;1.97;;
8104;SDS011;4095;48.942;9.104;2023-03-23T14:58:47;2.13;;;1.93;;
8104;SDS011;4095;48.942;9.104;2023-03-23T15:01:18;2.87;;;2.10;;
8104;SDS011;4095;48.942;9.104;2023-03-23T15:04:05;2.00;;;1.80;;
8104;SDS011;4095;48.942;9.104;2023-03-23T15:06:42;4.00;;;2.20;;
8104;SDS011;4095;48.942;9.104;2023-03-23T15:09:14;3.13;;;2.00;;
8104;SDS011;4095;48.942;9.104;2023-03-23T15:11:43;3.90;;;2.20;;
8104;SDS011;4095;48.942;9.104;2023-03-23T15:14:25;3.73;;;2.30;;
8104;SDS011;4095;48.942;9.104;2023-03-23T15:16:59;3.93;;;2.50;;
8104;SDS011;4095;48.942;9.104;2023-03-23T15:19:36;2.20;;;2.00;;
8104;SDS011;4095;48.942;9.104;2023-03-23T15:22:16;3.87;;;2.50;;
8104;SDS011;4095;48.942;9.104;2023-03-23T15:24:43;3.00;;;2.10;;
8104;SDS011;4095;48.942;9.104;2023-03-23T15:29:45;3.33;;;2.40;;
8104;SDS011;4095;48.942;9.104;2023-03-23T15:32:12;3.07;;;2.10;;
8104;SDS011;4095;48.942;9.104;2023-03-23T15:34:37;4.00;;;2.43;;
8104;SDS011;4095;48.942;9.104;2023-03-23T15:37:05;4.20;;;2.50;;
8104;SDS011;4095;48.942;9.104;2023-03-23T15:39:44;2.60;;;2.40;;
8104;SDS011;4095;48.942;9.104;2023-03-23T15:45:19;4.37;;;2.27;;
8104;SDS011;4095;48.942;9.104;2023-03-23T15:47:49;4.47;;;2.60;;
8104;SDS011;4095;48.942;9.104;2023-03-23T15:50:17;3.13;;;2.37;;
8104;SDS011;4095;48.942;9.104;2023-03-23T15:52:45;3.87;;;2.30;;
8104;SDS011;4095;48.942;9.104;2023-03-23T15:57:49;3.03;;;1.97;;
8104;SDS011;4095;48.942;9.104;2023-03-23T16:00:16;3.53;;;2.57;;
8104;SDS011;4095;48.942;9.104;2023-03-23T16:02:44;3.47;;;2.40;;
8104;SDS011;4095;48.942;9.104;2023-03-23T16:05:11;2.43;;;1.90;;
8104;SDS011;4095;48.942;9.104;2023-03-23T16:07:37;3.10;;;2.50;;
8104;SDS011;4095;48.942;9.104;2023-03-23T16:10:03;3.07;;;2.30;;
8104;SDS011;4095;48.942;9.104;2023-03-23T16:12:30;2.87;;;2.57;;
8104;SDS011;4095;48.942;9.104;2023-03-23T16:14:55;4.10;;;2.50;;
8104;SDS011;4095;48.942;9.104;2023-03-23T16:17:21;3.13;;;2.57;;
8104;SDS011;4095;48.942;9.104;2023-03-23T16:19:47;5.10;;;2.70;;
8104;SDS011;4095;48.942;9.104;2023-03-23T16:22:12;3.40;;;2.43;;
8104;SDS011;4095;48.942;9.104;2023-03-23T16:24:38;3.10;;;2.10;;
8104;SDS011;4095;48.942;9.104;2023-03-23T16:27:04;3.97;;;2.50;;
8104;SDS011;4095;48.942;9.104;2023-03-23T16:29:30;5.00;;;2.37;;
8104;SDS011;4095;48.942;9.104;2023-03-23T16:31:55;4.20;;;2.50;;
8104;SDS011;4095;48.942;9.104;2023-03-23T16:34:21;5.13;;;3.03;;
8104;SDS011;4095;48.942;9.104;2023-03-23T16:36:47;4.27;;;2.73;;
8104;SDS011;4095;48.942;9.104;2023-03-23T16:39:13;4.23;;;2.33;;
8104;SDS011;4095;48.942;9.104;2023-03-23T16:41:42;3.43;;;2.30;;
8104;SDS011;4095;48.942;9.104;2023-03-23T16:44:09;4.97;;;2.80;;
8104;SDS011;4095;48.942;9.104;2023-03-23T16:46:34;4.47;;;2.87;;
8104;SDS011;4095;48.942;9.104;2023-03-23T16:49:00;9.50;;;6.60;;
8104;SDS011;4095;48.942;9.104;2023-03-23T16:51:26;6.67;;;4.27;;
8104;SDS011;4095;48.942;9.104;2023-03-23T16:53:52;4.10;;;3.70;;
8104;SDS011;4095;48.942;9.104;2023-03-23T16:56:17;4.37;;;3.67;;
8104;SDS011;4095;48.942;9.104;2023-03-23T16:58:43;5.07;;;3.03;;
8104;SDS011;4095;48.942;9.104;2023-03-23T17:01:09;4.20;;;3.57;;
8104;SDS011;4095;48.942;9.104;2023-03-23T17:03:34;3.80;;;2.90;;
8104;SDS011;4095;48.942;9.104;2023-03-23T17:06:00;4.30;;;2.80;;
8104;SDS011;4095;48.942;9.104;2023-03-23T17:08:26;3.80;;;3.30;;
8104;SDS011;4095;48.942;9.104;2023-03-23T17:10:52;3.53;;;2.53;;
8104;SDS011;4095;48.942;9.104;2023-03-23T17:13:18;3.47;;;2.77;;
8104;SDS011;4095;48.942;9.104;2023-03-23T17:15:44;5.33;;;2.80;;
8104;SDS011;4095;48.942;9.104;2023-03-23T17:18:10;5.27;;;2.90;;
8104;SDS011;4095;48.942;9.104;2023-03-23T17:20:36;5.30;;;3.80;;
8104;SDS011;4095;48.942;9.104;2023-03-23T17:23:02;4.87;;;3.37;;
8104;SDS011;4095;48.942;9.104;2023-03-23T17:25:28;4.43;;;3.20;;
8104;SDS011;4095;48.942;9.104;2023-03-23T17:27:55;3.63;;;3.10;;
8104;SDS011;4095;48.942;9.104;2023-03-23T17:30:21;4.00;;;3.10;;
8104;SDS011;4095;48.942;9.104;2023-03-23T17:32:47;5.10;;;3.37;;